Time;durP1;ratioP1;P1;durP2;ratioP2;P2;SDS_P1;SDS_P2;PMS_P1;PMS_P2;Temp;Humidity;BMP_temperature;BMP_pressure;BME280_temperature;BME280_humidity;BME280_pressure;Samples;Min_cycle;Max_cycle;Signal;HPM_P1;HPM_P2
2022/08/13 00:01:36;;;;;;;1.80;1.40;;;22.80;32.10;;;;;;20584;6767;307540;-90
2022/08/13 00:04:08;;;;;;;1.55;1.45;;;22.90;32.30;;;;;;20592;6826;339405;-88
2022/08/13 00:07:08;;;;;;;1.43;1.33;;;23.20;32.10;;;;;;20494;6767;312269;-88
2022/08/13 00:09:19;;;;;;;1.57;1.23;;;23.40;32.10;;;;;;20496;6827;278598;-88
2022/08/13 00:14:52;;;;;;;2.47;1.37;;;23.30;31.90;;;;;;20689;6750;305611;-90
2022/08/13 00:17:25;;;;;;;1.40;1.40;;;23.20;32.10;;;;;;20674;6757;122373;-90
2022/08/13 00:20:01;;;;;;;1.30;1.30;;;23.00;32.20;;;;;;20891;6763;117201;-88
2022/08/13 00:22:36;;;;;;;1.30;1.30;;;22.60;32.60;;;;;;20668;6765;292185;-88
2022/08/13 00:25:13;;;;;;;2.47;1.33;;;22.70;33.00;;;;;;20863;6761;117190;-88
2022/08/13 00:27:49;;;;;;;1.53;1.33;;;22.50;32.80;;;;;;20859;6752;117408;-88
2022/08/13 00:30:28;;;;;;;1.50;1.40;;;22.20;33.00;;;;;;20896;6742;119956;-88
2022/08/13 00:33:03;;;;;;;1.60;1.50;;;22.00;33.30;;;;;;20863;6757;119038;-89
2022/08/13 00:35:41;;;;;;;1.53;1.37;;;21.80;33.50;;;;;;20845;6742;127608;-88
2022/08/13 00:38:14;;;;;;;1.47;1.37;;;21.70;33.80;;;;;;20645;6757;300084;-88
2022/08/13 00:40:49;;;;;;;1.27;1.27;;;21.90;34.20;;;;;;20802;6775;120000;-91
2022/08/13 00:43:25;;;;;;;1.60;1.50;;;21.90;33.90;;;;;;20587;6772;277672;-88
2022/08/13 00:46:01;;;;;;;1.40;1.30;;;22.10;34.10;;;;;;20540;6777;343365;-87
2022/08/13 00:48:43;;;;;;;1.47;1.37;;;22.40;33.80;;;;;;20593;6790;276968;-88
2022/08/13 00:51:19;;;;;;;1.30;1.30;;;22.60;33.60;;;;;;20540;6789;279706;-88
2022/08/13 00:53:54;;;;;;;1.77;1.50;;;22.80;33.60;;;;;;20712;6814;116930;-88
2022/08/13 00:56:34;;;;;;;1.40;1.40;;;22.50;33.70;;;;;;20413;6818;311045;-88
2022/08/13 00:59:13;;;;;;;1.60;1.50;;;22.40;33.90;;;;;;20596;6783;276903;-88
2022/08/13 01:01:47;;;;;;;1.40;1.40;;;22.60;33.80;;;;;;20603;6773;309958;-88
2022/08/13 01:04:23;;;;;;;1.50;1.40;;;22.80;33.70;;;;;;20843;6773;116183;-88
2022/08/13 01:07:04;;;;;;;2.80;1.40;;;22.50;33.70;;;;;;20695;6833;117488;-88
2022/08/13 01:09:37;;;;;;;1.63;1.53;;;22.20;34.10;;;;;;20832;6769;118086;-88
2022/08/13 01:12:13;;;;;;;1.20;1.20;;;21.90;35.10;;;;;;20893;6758;116337;-88
2022/08/13 01:14:49;;;;;;;4.23;1.40;;;21.60;34.70;;;;;;20835;6773;117144;-88
2022/08/13 01:17:26;;;;;;;1.50;1.40;;;21.50;35.00;;;;;;20434;6785;279261;-88
2022/08/13 01:20:00;;;;;;;1.60;1.50;;;21.80;35.10;;;;;;20860;6772;115107;-88
2022/08/13 01:22:36;;;;;;;1.67;1.57;;;21.80;34.70;;;;;;20850;6773;118841;-88
2022/08/13 01:25:21;;;;;;;1.67;1.57;;;21.70;34.90;;;;;;20540;6769;307023;-94
2022/08/13 01:27:50;;;;;;;2.20;1.52;;;21.90;34.90;;;;;;20581;6784;317360;-88
2022/08/13 01:30:26;;;;;;;1.47;1.40;;;22.30;34.60;;;;;;20583;6774;277684;-88
2022/08/13 01:33:08;;;;;;;1.80;1.60;;;22.50;34.20;;;;;;20569;6783;279577;-88
2022/08/13 01:35:37;;;;;;;1.43;1.33;;;22.70;34.10;;;;;;20726;6829;117267;-88
2022/08/13 01:38:14;;;;;;;1.63;1.40;;;22.40;34.10;;;;;;20807;6773;117445;-88
2022/08/13 01:40:48;;;;;;;1.67;1.57;;;22.00;34.50;;;;;;20855;6758;117338;-88
2022/08/13 01:43:29;;;;;;;1.40;1.40;;;21.60;34.90;;;;;;20643;6758;308475;-88
2022/08/13 01:46:04;;;;;;;2.13;1.37;;;21.70;35.10;;;;;;20764;6758;117641;-88
2022/08/13 01:51:35;;;;;;;1.53;1.43;;;21.40;35.40;;;;;;20773;6777;117351;-88
2022/08/13 01:54:11;;;;;;;1.70;1.60;;;21.50;35.80;;;;;;20601;6773;278926;-87
2022/08/13 01:56:47;;;;;;;1.63;1.53;;;21.50;36.10;;;;;;20457;6776;308951;-87
2022/08/13 01:59:23;;;;;;;1.50;1.50;;;21.90;35.60;;;;;;20589;6783;283178;-87
2022/08/13 02:02:01;;;;;;;1.63;1.63;;;22.20;35.30;;;;;;20573;6783;279826;-87
2022/08/13 02:04:39;;;;;;;1.70;1.55;;;22.50;35.40;;;;;;20620;6768;306396;-88
2022/08/13 02:07:13;;;;;;;1.83;1.73;;;22.40;34.50;;;;;;20456;6772;279039;-87
2022/08/13 02:09:49;;;;;;;1.80;1.67;;;22.50;34.40;;;;;;20649;6769;305047;-87
2022/08/13 02:12:24;;;;;;;2.70;1.60;;;22.50;34.40;;;;;;20641;6784;279200;-88
2022/08/13 02:15:05;;;;;;;1.70;1.60;;;22.10;34.70;;;;;;20829;6784;116713;-90
2022/08/13 02:17:47;;;;;;;1.77;1.73;;;22.10;34.70;;;;;;20352;6857;296101;-87
2022/08/13 02:20:17;;;;;;;1.50;1.50;;;22.00;35.10;;;;;;20788;6784;117492;-87
2022/08/13 02:22:48;;;;;;;1.40;1.40;;;21.70;35.20;;;;;;20742;6844;117276;-87
2022/08/13 02:25:26;;;;;;;1.53;1.53;;;21.40;36.30;;;;;;20522;6792;292677;-86
2022/08/13 02:28:04;;;;;;;1.47;1.47;;;21.30;36.20;;;;;;20791;6776;116592;-90
2022/08/13 02:30:38;;;;;;;4.13;1.60;;;21.20;36.10;;;;;;20795;6827;117534;-87
2022/08/13 02:33:15;;;;;;;1.77;1.77;;;21.10;37.60;;;;;;20604;6771;307662;-87
2022/08/13 02:35:50;;;;;;;1.75;1.70;;;21.10;36.90;;;;;;20581;6758;339625;-87
2022/08/13 02:38:26;;;;;;;4.93;1.93;;;21.40;36.60;;;;;;20839;6758;117157;-86
2022/08/13 02:44:00;;;;;;;1.50;1.40;;;21.30;36.90;;;;;;20728;6792;119903;-87
2022/08/13 02:46:33;;;;;;;1.85;1.75;;;21.10;36.80;;;;;;20492;6773;280165;-86
2022/08/13 02:49:09;;;;;;;2.37;1.67;;;21.20;37.30;;;;;;21133;6660;67981;-87
2022/08/13 02:51:46;;;;;;;1.73;1.63;;;21.00;37.10;;;;;;20861;6777;118395;-88
2022/08/13 02:54:20;;;;;;;1.87;1.77;;;20.80;37.40;;;;;;20842;6777;118971;-88
2022/08/13 02:57:06;;;;;;;;;;;;;;;;;;;;;
2022/08/13 02:59:32;;;;;;;1.73;1.62;;;20.80;38.00;;;;;;20587;6659;306212;-88
2022/08/13 03:02:10;;;;;;;1.87;1.70;;;21.20;38.20;;;;;;20667;6754;319170;-87
2022/08/13 03:04:44;;;;;;;1.80;1.70;;;21.50;37.20;;;;;;20823;6769;116967;-89
2022/08/13 03:07:21;;;;;;;2.00;1.90;;;21.30;37.10;;;;;;20654;6789;117294;-87
2022/08/13 03:09:55;;;;;;;2.30;1.80;;;21.00;37.40;;;;;;20606;6764;306272;-88
2022/08/13 03:12:32;;;;;;;1.87;1.77;;;21.10;37.60;;;;;;20608;6769;309141;-87
2022/08/13 03:15:08;;;;;;;2.15;1.98;;;21.40;37.40;;;;;;20526;6796;340179;-87
2022/08/13 03:17:43;;;;;;;2.00;1.90;;;21.60;37.20;;;;;;20608;6766;278578;-87
2022/08/13 03:20:21;;;;;;;2.10;1.90;;;21.80;37.10;;;;;;20638;6766;305662;-86
2022/08/13 03:22:57;;;;;;;1.50;1.50;;;21.90;37.00;;;;;;20824;6766;117730;-87
2022/08/13 03:25:33;;;;;;;1.63;1.53;;;21.60;37.10;;;;;;20779;6769;117358;-87
2022/08/13 03:28:08;;;;;;;1.80;1.70;;;21.20;37.50;;;;;;20655;6754;306701;-86
2022/08/13 03:30:44;;;;;;;1.75;1.65;;;21.40;38.30;;;;;;20613;6768;336114;-86
2022/08/13 03:33:19;;;;;;;1.77;1.77;;;21.60;38.10;;;;;;20773;6773;119970;-87
2022/08/13 03:35:55;;;;;;;1.98;1.87;;;21.30;37.90;;;;;;20476;6784;280852;-87
2022/08/13 03:38:31;;;;;;;2.50;1.80;;;21.30;38.50;;;;;;20573;6781;278152;-87
2022/08/13 03:41:14;;;;;;;1.90;1.80;;;21.40;38.30;;;;;;20580;6779;307342;-86
2022/08/13 03:43:48;;;;;;;3.15;2.95;;;21.40;38.00;;;;;;20570;6771;307713;-87
2022/08/13 03:46:24;;;;;;;5.43;5.13;;;21.40;38.00;;;;;;20666;6784;68117;-87
2022/08/13 03:49:00;;;;;;;3.80;3.60;;;21.00;38.20;;;;;;20700;6857;117219;-87
2022/08/13 03:51:36;;;;;;;2.50;2.40;;;20.60;38.70;;;;;;20531;6784;307809;-87
2022/08/13 03:54:12;;;;;;;2.07;1.97;;;20.70;39.30;;;;;;20805;6769;117936;-87
2022/08/13 03:56:47;;;;;;;2.17;1.97;;;20.60;39.10;;;;;;20451;6778;283104;-86
2022/08/13 03:59:23;;;;;;;2.40;2.30;;;20.70;39.00;;;;;;20761;6775;117807;-87
2022/08/13 04:02:01;;;;;;;1.80;1.80;;;20.50;38.80;;;;;;20779;6778;120860;-87
2022/08/13 04:04:35;;;;;;;2.27;2.00;;;20.20;39.00;;;;;;20598;6774;280455;-87
2022/08/13 04:07:11;;;;;;;1.80;1.80;;;20.30;39.40;;;;;;20670;6767;117404;-87
2022/08/13 04:09:56;;;;;;;1.90;1.80;;;20.20;39.40;;;;;;20808;6769;117175;-87
2022/08/13 04:12:26;;;;;;;2.27;2.03;;;20.10;40.70;;;;;;20607;6769;309595;-87
2022/08/13 04:14:59;;;;;;;1.77;1.77;;;20.10;39.90;;;;;;20828;6768;117098;-86
2022/08/13 04:17:37;;;;;;;2.83;1.93;;;20.00;39.70;;;;;;20578;6845;117331;-86
2022/08/13 04:20:14;;;;;;;2.13;1.93;;;19.80;40.60;;;;;;20893;6656;117203;-89
2022/08/13 04:22:50;;;;;;;2.58;2.00;;;19.60;40.10;;;;;;20375;6773;307309;-92
2022/08/13 04:25:25;;;;;;;2.23;2.13;;;19.90;40.40;;;;;;20849;6754;123397;-88
2022/08/13 04:28:01;;;;;;;2.12;2.03;;;19.90;40.00;;;;;;20626;6758;308662;-87
2022/08/13 04:30:39;;;;;;;1.50;1.50;;;20.30;40.10;;;;;;20704;6859;117223;-88
2022/08/13 04:33:14;;;;;;;1.83;1.77;;;20.20;40.00;;;;;;20762;6787;117127;-88
2022/08/13 04:35:49;;;;;;;1.93;1.60;;;20.10;40.30;;;;;;20691;6793;117477;-87
2022/08/13 04:38:24;;;;;;;2.10;1.90;;;19.90;40.60;;;;;;20631;6759;302880;-87
2022/08/13 04:41:01;;;;;;;2.00;1.90;;;20.10;40.80;;;;;;20753;6784;123327;-87
2022/08/13 04:43:38;;;;;;;2.10;2.00;;;20.10;40.50;;;;;;20747;6784;117657;-88
2022/08/13 04:46:23;;;;;;;1.93;1.83;;;20.00;40.80;;;;;;20631;6805;118634;-87
2022/08/13 04:48:50;;;;;;;2.05;1.95;;;19.80;40.90;;;;;;20522;6801;278760;-87
2022/08/13 04:51:25;;;;;;;2.37;1.93;;;20.00;41.10;;;;;;20794;6769;117114;-87
2022/08/13 04:54:01;;;;;;;2.20;2.10;;;20.00;40.80;;;;;;20768;6784;115483;-88
2022/08/13 04:56:40;;;;;;;2.20;2.10;;;19.70;40.90;;;;;;20718;6766;117361;-88
2022/08/13 04:59:15;;;;;;;2.10;2.00;;;19.50;41.20;;;;;;20642;6759;276821;-87
2022/08/13 05:02:00;;;;;;;2.20;2.10;;;19.80;41.70;;;;;;20617;6759;293251;-87
2022/08/13 05:04:26;;;;;;;3.15;2.30;;;20.30;41.20;;;;;;20649;6759;279717;-87
2022/08/13 05:07:02;;;;;;;3.80;2.10;;;20.70;40.60;;;;;;20386;6786;67922;-87
2022/08/13 05:09:38;;;;;;;2.00;1.90;;;20.60;40.50;;;;;;19394;6778;279384;-91
2022/08/13 05:12:13;;;;;;;2.10;2.00;;;20.70;40.80;;;;;;20781;6764;117755;-87
2022/08/13 05:14:49;;;;;;;1.97;1.87;;;20.60;40.60;;;;;;20831;6769;119224;-87
2022/08/13 05:17:35;;;;;;;;;;;;;;;;;;;;;
2022/08/13 05:20:24;;;;;;;2.13;2.03;;;20.10;41.50;;;;;;21185;6521;276872;-88
2022/08/13 05:22:50;;;;;;;3.28;2.12;;;20.40;41.80;;;;;;20704;6795;304958;-88
2022/08/13 05:25:16;;;;;;;1.87;1.80;;;20.80;41.20;;;;;;20674;6799;278600;-88
2022/08/13 05:27:43;;;;;;;2.40;1.93;;;21.10;40.80;;;;;;20771;6832;144432;-86
2022/08/13 05:30:07;;;;;;;2.20;2.10;;;21.00;40.70;;;;;;20769;6842;117868;-86
2022/08/13 05:32:38;;;;;;;2.27;2.10;;;20.50;41.00;;;;;;20769;6842;117121;-86
2022/08/13 05:35:04;;;;;;;2.10;2.00;;;20.40;40.90;;;;;;20558;6842;306775;-87
2022/08/13 05:37:29;;;;;;;1.92;1.83;;;20.60;41.00;;;;;;20585;6842;306436;-86
2022/08/13 05:39:55;;;;;;;2.10;2.00;;;21.30;40.30;;;;;;20535;6842;276938;-86
2022/08/13 05:42:21;;;;;;;2.10;2.00;;;21.30;40.30;;;;;;20767;6842;116975;-86
2022/08/13 05:44:56;;;;;;;1.97;1.87;;;21.20;40.10;;;;;;20558;6842;279922;-86
2022/08/13 05:47:13;;;;;;;2.73;2.03;;;21.20;39.90;;;;;;20693;6842;116180;-86
2022/08/13 05:49:38;;;;;;;2.10;2.00;;;21.10;40.00;;;;;;20528;6842;300998;-86
2022/08/13 05:52:04;;;;;;;2.10;2.00;;;21.60;40.20;;;;;;20551;6842;305932;-87
2022/08/13 05:54:31;;;;;;;2.23;2.03;;;21.50;40.10;;;;;;20769;6842;117439;-87
2022/08/13 05:56:58;;;;;;;2.20;2.10;;;21.40;40.00;;;;;;20550;6842;318889;-88
2022/08/13 06:04:55;;;;;;;2.30;2.10;;;21.50;39.90;;;;;;20548;6842;291003;-87
2022/08/13 06:07:22;;;;;;;2.30;2.10;;;21.80;39.80;;;;;;20765;6842;117118;-88
2022/08/13 06:09:46;;;;;;;2.10;2.00;;;21.60;39.70;;;;;;20748;6842;118997;-87
2022/08/13 06:12:14;;;;;;;1.83;1.83;;;21.30;39.90;;;;;;20747;6842;117480;-87
2022/08/13 06:14:38;;;;;;;2.20;2.10;;;21.10;40.30;;;;;;20548;6842;279614;-87
2022/08/13 06:17:03;;;;;;;2.70;2.07;;;21.30;40.80;;;;;;20555;6842;279867;-87
2022/08/13 06:19:32;;;;;;;2.33;2.22;;;21.90;40.50;;;;;;20536;6842;276127;-87
2022/08/13 06:22:01;;;;;;;2.10;2.00;;;21.90;40.50;;;;;;20752;6842;117679;-88
2022/08/13 06:24:24;;;;;;;2.20;2.00;;;21.80;40.30;;;;;;20561;6825;297265;-87
2022/08/13 06:26:51;;;;;;;2.30;1.73;;;21.90;40.70;;;;;;20823;6825;117801;-87
2022/08/13 06:29:16;;;;;;;2.07;1.90;;;21.90;40.70;;;;;;20807;6825;118907;-87
2022/08/13 06:31:47;;;;;;;2.28;2.17;;;21.60;41.30;;;;;;20803;6823;117748;-87
2022/08/13 06:34:09;;;;;;;2.00;1.90;;;21.50;41.20;;;;;;20597;6825;335591;-87
2022/08/13 06:36:37;;;;;;;2.22;1.90;;;21.90;41.50;;;;;;20602;6825;307789;-89
2022/08/13 06:39:02;;;;;;;2.43;2.03;;;22.40;40.40;;;;;;20809;6825;117654;-88
2022/08/13 06:41:27;;;;;;;1.87;1.80;;;22.40;40.40;;;;;;20593;6825;307459;-85
2022/08/13 06:43:52;;;;;;;2.00;1.90;;;22.70;40.50;;;;;;20588;6825;306152;-87
2022/08/13 06:46:18;;;;;;;2.10;2.00;;;23.10;40.10;;;;;;20609;6825;278842;-86
2022/08/13 06:48:46;;;;;;;2.70;1.87;;;23.50;39.60;;;;;;20603;6825;336461;-87
2022/08/13 06:51:12;;;;;;;2.03;1.93;;;23.80;38.60;;;;;;20809;6825;117077;-86
2022/08/13 06:53:38;;;;;;;2.60;2.20;;;23.80;39.00;;;;;;20586;6825;277628;-88
2022/08/13 06:56:03;;;;;;;2.45;2.35;;;24.20;37.10;;;;;;20599;6825;307734;-88
2022/08/13 06:58:30;;;;;;;2.70;2.30;;;24.80;36.10;;;;;;20790;6825;116887;-87
2022/08/13 07:00:55;;;;;;;2.70;2.50;;;24.80;36.10;;;;;;20614;6825;277296;-87
2022/08/13 07:03:27;;;;;;;4.40;2.40;;;25.10;35.00;;;;;;20621;6825;306624;-87
2022/08/13 07:05:53;;;;;;;2.23;2.13;;;25.40;34.50;;;;;;20789;6825;117639;-87
2022/08/13 07:08:19;;;;;;;2.42;2.20;;;25.20;35.30;;;;;;20818;6825;117235;-87
2022/08/13 07:11:21;;;;;;;2.13;2.03;;;25.20;35.30;;;;;;20821;6825;117069;-88
2022/08/13 07:13:14;;;;;;;2.33;2.23;;;25.10;35.70;;;;;;20554;6825;279675;-86
2022/08/13 07:15:40;;;;;;;3.73;2.30;;;25.30;35.10;;;;;;20801;6825;117094;-86
2022/08/13 07:18:05;;;;;;;2.43;2.27;;;25.40;35.00;;;;;;20782;6825;117086;-88
2022/08/13 07:20:32;;;;;;;2.50;2.30;;;25.30;35.00;;;;;;20598;6825;308268;-88
2022/08/13 07:22:58;;;;;;;2.13;2.03;;;25.50;34.10;;;;;;20822;6825;119138;-87
2022/08/13 07:25:30;;;;;;;2.50;2.30;;;25.50;34.70;;;;;;20820;6825;117846;-88
2022/08/13 07:27:54;;;;;;;2.40;2.20;;;25.50;34.70;;;;;;20578;6825;462450;-88
2022/08/13 07:30:18;;;;;;;2.45;2.25;;;25.80;34.30;;;;;;20601;6825;307838;-88
2022/08/13 07:32:44;;;;;;;2.37;2.17;;;26.30;33.80;;;;;;20605;6825;336490;-88
2022/08/13 07:35:11;;;;;;;2.40;2.30;;;26.60;33.30;;;;;;20825;6825;120053;-88
2022/08/13 07:37:36;;;;;;;2.45;2.25;;;26.70;33.40;;;;;;20577;6825;307453;-88
2022/08/13 07:40:02;;;;;;;2.23;2.13;;;26.90;32.50;;;;;;20806;6825;117263;-88
2022/08/13 07:42:28;;;;;;;2.30;2.10;;;26.80;33.00;;;;;;20801;6823;117016;-88
2022/08/13 07:44:54;;;;;;;2.47;2.28;;;26.80;33.10;;;;;;20602;6825;333046;-88
2022/08/13 07:47:21;;;;;;;2.20;2.10;;;26.70;33.00;;;;;;20817;6825;117096;-88
2022/08/13 07:49:48;;;;;;;2.73;2.20;;;26.80;33.20;;;;;;20799;6825;118088;-88
2022/08/13 07:52:13;;;;;;;2.50;2.25;;;26.70;33.30;;;;;;20600;6825;309693;-88
2022/08/13 07:54:40;;;;;;;2.33;2.13;;;26.90;32.70;;;;;;20814;6825;117042;-90
2022/08/13 07:57:04;;;;;;;2.13;2.03;;;27.00;32.80;;;;;;20602;6825;278020;-88
2022/08/13 07:59:31;;;;;;;2.43;2.23;;;27.20;32.90;;;;;;20624;6825;278036;-88
2022/08/13 08:01:57;;;;;;;2.63;2.50;;;27.70;33.10;;;;;;20630;6825;311938;-88
2022/08/13 08:04:24;;;;;;;2.20;2.10;;;28.10;31.90;;;;;;20652;6825;303502;-89
2022/08/13 08:06:48;;;;;;;2.00;1.90;;;28.50;31.10;;;;;;20815;6825;117688;-90
2022/08/13 08:09:19;;;;;;;2.20;2.10;;;28.40;31.40;;;;;;20831;6825;117467;-88
2022/08/13 08:14:32;;;;;;;3.00;2.20;;;28.40;31.10;;;;;;20825;6825;116608;-86
2022/08/13 08:16:59;;;;;;;2.47;2.28;;;28.40;31.10;;;;;;20605;6825;338001;-87
2022/08/13 08:19:24;;;;;;;2.27;2.17;;;28.50;30.90;;;;;;20822;6825;117111;-89
2022/08/13 08:21:52;;;;;;;2.03;1.92;;;28.50;30.90;;;;;;20600;6825;278434;-88
2022/08/13 08:24:17;;;;;;;1.87;1.73;;;28.70;30.40;;;;;;20786;6825;117513;-89
2022/08/13 08:26:43;;;;;;;6.20;2.13;;;28.60;30.70;;;;;;20814;6825;118167;-88
2022/08/13 08:29:10;;;;;;;3.13;2.03;;;28.40;31.40;;;;;;20807;6825;117278;-89
2022/08/13 08:31:42;;;;;;;4.72;2.45;;;28.30;31.30;;;;;;20591;6825;276781;-88
2022/08/13 08:34:08;;;;;;;2.17;2.08;;;29.20;29.90;;;;;;20601;6825;308672;-89
2022/08/13 08:36:37;;;;;;;2.47;2.27;;;29.20;29.90;;;;;;20809;6825;117855;-92
2022/08/13 08:44:33;;;;;;;2.43;2.33;;;28.90;29.80;;;;;;20831;6825;117215;-90
2022/08/13 08:46:59;;;;;;;2.50;2.30;;;28.60;30.00;;;;;;20616;6825;278472;-88
2022/08/13 08:49:24;;;;;;;2.57;2.47;;;28.60;30.00;;;;;;20811;6825;116966;-88
2022/08/13 08:51:52;;;;;;;2.87;2.50;;;28.50;30.10;;;;;;20587;6825;282882;-89
2022/08/13 08:54:18;;;;;;;2.33;2.23;;;28.60;30.20;;;;;;20816;6823;117055;-89
2022/08/13 08:56:43;;;;;;;2.30;2.10;;;28.70;30.30;;;;;;20828;6825;119252;-88
2022/08/13 08:59:10;;;;;;;4.30;2.40;;;28.80;30.60;;;;;;20608;6825;310280;-88
2022/08/13 09:01:34;;;;;;;2.10;2.00;;;29.20;30.10;;;;;;20798;6825;117568;-88
2022/08/13 09:04:04;;;;;;;3.83;2.22;;;29.40;29.90;;;;;;20827;6825;118284;-88
2022/08/13 09:06:31;;;;;;;4.73;2.33;;;29.40;30.00;;;;;;20601;6825;278986;-89
2022/08/13 09:08:56;;;;;;;2.33;2.13;;;29.60;29.30;;;;;;20816;6825;118203;-88
2022/08/13 09:11:22;;;;;;;2.27;2.10;;;29.50;29.40;;;;;;20806;6825;117714;-89
2022/08/13 09:13:49;;;;;;;2.22;2.10;;;29.30;29.70;;;;;;20586;6825;278039;-88
2022/08/13 09:16:13;;;;;;;2.50;2.17;;;29.30;29.40;;;;;;20811;6825;118182;-88
2022/08/13 09:18:39;;;;;;;2.12;2.03;;;29.30;29.90;;;;;;20606;6825;309340;-88
2022/08/13 09:21:06;;;;;;;2.13;2.03;;;29.60;30.00;;;;;;20818;6825;117192;-88
2022/08/13 09:23:33;;;;;;;2.70;2.00;;;29.80;29.90;;;;;;20604;6825;307405;-89
2022/08/13 09:25:59;;;;;;;2.10;2.00;;;30.00;29.20;;;;;;20587;6825;278133;-87
2022/08/13 09:28:26;;;;;;;2.00;1.90;;;30.30;28.60;;;;;;20612;6825;306263;-89
2022/08/13 09:30:50;;;;;;;2.10;2.00;;;30.60;28.20;;;;;;20821;6825;117832;-89
2022/08/13 09:33:17;;;;;;;2.22;2.12;;;30.60;28.00;;;;;;20618;6825;277601;-89
2022/08/13 09:35:42;;;;;;;2.23;2.07;;;30.60;28.00;;;;;;20570;6825;277886;-91
2022/08/13 09:38:08;;;;;;;2.10;2.00;;;30.70;27.60;;;;;;20622;6825;279595;-90
2022/08/13 09:40:33;;;;;;;3.22;2.10;;;30.70;27.90;;;;;;20620;6825;307026;-88
2022/08/13 09:42:59;;;;;;;2.10;2.00;;;30.80;28.30;;;;;;20601;6825;307800;-89
2022/08/13 09:45:25;;;;;;;2.37;2.17;;;30.90;28.90;;;;;;20828;6825;117138;-91
2022/08/13 09:48:10;;;;;;;1.73;1.73;;;30.90;28.70;;;;;;20933;6609;118561;-92
2022/08/13 09:50:56;;;;;;;;;;;;;;;;;;;;;
2022/08/13 09:53:25;;;;;;;2.10;2.00;;;30.80;28.70;;;;;;20975;6744;115993;-88
2022/08/13 09:56:08;;;;;;;2.03;1.93;;;30.70;28.50;;;;;;20486;6756;307338;-89
2022/08/13 09:58:34;;;;;;;2.53;2.10;;;31.00;27.90;;;;;;20701;6756;335522;-89
2022/08/13 10:01:15;;;;;;;2.23;2.13;;;31.50;27.60;;;;;;20689;6762;282847;-88
2022/08/13 10:03:48;;;;;;;3.90;1.90;;;31.80;27.10;;;;;;20723;6748;305261;-89
2022/08/13 10:06:32;;;;;;;;;;;;;;;;;;;;;
2022/08/13 10:09:11;;;;;;;;;;;;;;;;;;;;;
2022/08/13 10:11:41;;;;;;;2.30;2.10;;;32.00;26.70;;;;;;20690;6747;335009;-88
2022/08/13 10:14:13;;;;;;;2.30;2.17;;;32.00;26.70;;;;;;20926;6737;117105;-88
2022/08/13 10:16:50;;;;;;;3.33;2.03;;;31.80;26.90;;;;;;20810;6737;117230;-87
2022/08/13 10:19:25;;;;;;;3.93;2.23;;;31.40;27.00;;;;;;20713;6737;291965;-88
2022/08/13 10:22:00;;;;;;;2.33;1.90;;;31.40;26.70;;;;;;20916;6737;121563;-88
2022/08/13 10:24:36;;;;;;;2.37;1.80;;;31.10;26.90;;;;;;20930;6737;114645;-89
2022/08/13 10:27:13;;;;;;;2.00;1.90;;;30.80;27.20;;;;;;20798;6737;117671;-89
2022/08/13 10:29:48;;;;;;;2.27;2.10;;;30.60;27.30;;;;;;20698;6737;306853;-88
2022/08/13 10:32:23;;;;;;;4.40;2.13;;;30.60;27.30;;;;;;20711;6737;306737;-88
2022/08/13 10:35:02;;;;;;;1.80;1.80;;;30.80;27.30;;;;;;20911;6737;119447;-88
2022/08/13 10:41:17;;;;;;;;;;;;;;;;;;;;;
2022/08/13 10:57:43;;;;;;;1.83;1.73;;;32.60;25.10;;;;;;21396;6578;65306;-87
2022/08/13 11:00:09;;;;;;;2.07;1.83;;;32.40;25.50;;;;;;20670;6873;117886;-87
2022/08/13 11:02:35;;;;;;;2.10;2.00;;;32.00;26.40;;;;;;20671;6869;117340;-88
2022/08/13 11:05:03;;;;;;;2.10;1.90;;;32.00;25.90;;;;;;20466;6869;315929;-90
2022/08/13 11:07:26;;;;;;;2.17;2.07;;;32.10;25.90;;;;;;20669;6869;118650;-88
2022/08/13 11:09:51;;;;;;;3.40;1.90;;;32.10;25.70;;;;;;20699;6856;117577;-87
2022/08/13 11:12:18;;;;;;;4.20;1.90;;;32.00;25.70;;;;;;20696;6867;117506;-87
2022/08/13 11:14:47;;;;;;;2.43;2.00;;;31.80;25.80;;;;;;20475;6867;280422;-88
2022/08/13 11:17:17;;;;;;;3.47;1.90;;;32.20;25.30;;;;;;20458;6867;308437;-88
2022/08/13 11:19:45;;;;;;;2.10;1.80;;;32.20;25.30;;;;;;20641;6867;117460;-87
2022/08/13 11:22:07;;;;;;;1.80;1.70;;;32.20;25.70;;;;;;20476;6865;279193;-87
2022/08/13 11:24:32;;;;;;;2.08;1.87;;;32.20;25.70;;;;;;20692;6865;116493;-88
2022/08/13 11:26:58;;;;;;;2.90;1.90;;;32.20;25.50;;;;;;20482;6865;293335;-87
2022/08/13 11:29:24;;;;;;;2.03;1.93;;;32.30;25.10;;;;;;20681;6865;122680;-88
2022/08/13 11:31:50;;;;;;;2.10;2.00;;;32.20;25.10;;;;;;20443;6872;303642;-88
2022/08/13 11:34:16;;;;;;;2.60;2.40;;;32.30;25.30;;;;;;20451;6872;293697;-88
2022/08/13 11:36:41;;;;;;;2.23;1.73;;;32.50;25.20;;;;;;20458;6872;281860;-88
2022/08/13 11:39:07;;;;;;;3.20;2.00;;;32.70;24.90;;;;;;20670;6872;117350;-88
2022/08/13 11:41:32;;;;;;;1.73;1.63;;;32.60;24.70;;;;;;20663;6872;117381;-88
2022/08/13 11:43:58;;;;;;;2.83;1.80;;;32.40;24.90;;;;;;20639;6870;120527;-88
2022/08/13 11:46:24;;;;;;;2.40;1.83;;;32.20;24.30;;;;;;20469;6870;308574;-89
2022/08/13 11:48:50;;;;;;;2.50;2.00;;;32.20;24.30;;;;;;20474;6870;309039;-88
2022/08/13 11:51:15;;;;;;;1.73;1.67;;;32.40;24.40;;;;;;20681;6870;117203;-88
2022/08/13 11:53:41;;;;;;;1.63;1.53;;;32.30;24.10;;;;;;20456;6870;280410;-88
2022/08/13 11:56:06;;;;;;;1.50;1.50;;;32.30;22.20;;;;;;20678;6870;118491;-88
2022/08/13 11:58:32;;;;;;;2.30;1.67;;;32.20;22.50;;;;;;20469;6870;298988;-88
2022/08/13 12:00:59;;;;;;;2.30;1.63;;;32.20;22.00;;;;;;20682;6870;117304;-88
2022/08/13 12:03:24;;;;;;;1.40;1.30;;;31.90;22.50;;;;;;20671;6870;117401;-88
2022/08/13 12:05:49;;;;;;;1.57;1.47;;;31.90;22.10;;;;;;20450;6870;306087;-88
2022/08/13 12:08:15;;;;;;;1.90;1.27;;;32.00;21.60;;;;;;20685;6868;117398;-88
2022/08/13 12:10:40;;;;;;;1.50;1.40;;;32.00;21.70;;;;;;20467;6870;281055;-88
2022/08/13 12:13:06;;;;;;;1.60;1.60;;;32.10;21.10;;;;;;20685;6870;117314;-87
2022/08/13 12:15:32;;;;;;;1.50;1.40;;;32.10;21.40;;;;;;20471;6870;279637;-88
2022/08/13 12:17:57;;;;;;;1.87;1.47;;;32.10;20.80;;;;;;20650;6870;117391;-88
2022/08/13 12:20:23;;;;;;;1.90;1.53;;;32.10;21.10;;;;;;20462;6870;279555;-88
2022/08/13 12:22:48;;;;;;;1.92;1.55;;;32.10;21.50;;;;;;20456;6870;312388;-88
2022/08/13 12:25:14;;;;;;;2.67;1.83;;;32.30;22.30;;;;;;20672;6870;117454;-88
2022/08/13 12:27:40;;;;;;;2.80;2.10;;;32.30;22.30;;;;;;20450;6870;308835;-88
2022/08/13 12:30:07;;;;;;;1.50;1.50;;;32.70;23.00;;;;;;20467;6870;334461;-88
2022/08/13 12:32:32;;;;;;;1.47;1.30;;;32.60;23.00;;;;;;20681;6870;117206;-88
2022/08/13 12:34:58;;;;;;;1.93;1.43;;;32.60;22.30;;;;;;20468;6870;300870;-88
2022/08/13 12:37:23;;;;;;;1.40;1.30;;;32.60;20.90;;;;;;20684;6870;118252;-88
2022/08/13 12:39:53;;;;;;;1.57;1.40;;;32.50;21.20;;;;;;20441;6870;279202;-88
2022/08/13 12:42:19;;;;;;;2.83;1.40;;;32.50;20.90;;;;;;20435;6876;309240;-87
2022/08/13 12:44:44;;;;;;;1.57;1.30;;;32.70;20.80;;;;;;20646;6877;118003;-88
2022/08/13 12:47:10;;;;;;;1.57;1.47;;;32.70;21.00;;;;;;20433;6877;279413;-88
2022/08/13 12:49:36;;;;;;;1.50;1.50;;;32.70;20.40;;;;;;20648;6877;118440;-88
2022/08/13 12:52:01;;;;;;;1.53;1.43;;;32.70;20.80;;;;;;20690;6867;117440;-88
2022/08/13 12:54:27;;;;;;;3.23;1.70;;;32.30;21.00;;;;;;20690;6867;117718;-88
2022/08/13 12:56:53;;;;;;;1.60;1.53;;;32.30;21.00;;;;;;20476;6867;311549;-88
2022/08/13 12:59:18;;;;;;;1.60;1.50;;;32.50;21.90;;;;;;20475;6867;309915;-88
2022/08/13 13:01:44;;;;;;;2.60;1.60;;;32.70;22.10;;;;;;20463;6867;282407;-88
2022/08/13 13:04:10;;;;;;;1.83;1.73;;;33.00;22.00;;;;;;20695;6867;118752;-88
2022/08/13 13:06:35;;;;;;;1.85;1.62;;;32.90;22.10;;;;;;20474;6863;281899;-88
2022/08/13 13:09:01;;;;;;;1.70;1.60;;;32.90;22.30;;;;;;20703;6863;117219;-88
2022/08/13 13:11:26;;;;;;;1.50;1.50;;;32.80;22.00;;;;;;20704;6863;117918;-88
2022/08/13 13:13:52;;;;;;;1.77;1.70;;;32.60;22.10;;;;;;20467;6863;310822;-88
2022/08/13 13:16:19;;;;;;;1.20;1.20;;;32.60;21.20;;;;;;20710;6863;117442;-88
2022/08/13 13:18:43;;;;;;;2.30;1.90;;;32.60;21.70;;;;;;20488;6860;279494;-88
2022/08/13 13:21:08;;;;;;;1.83;1.60;;;32.70;22.70;;;;;;20496;6862;278747;-89
2022/08/13 13:23:39;;;;;;;1.80;1.70;;;32.80;22.60;;;;;;20503;6862;279853;-88
2022/08/13 13:26:00;;;;;;;1.73;1.63;;;32.90;22.90;;;;;;20407;6862;279442;-88
2022/08/13 13:28:25;;;;;;;1.80;1.70;;;33.00;21.80;;;;;;20704;6862;118504;-88
2022/08/13 13:30:51;;;;;;;1.50;1.40;;;32.80;22.30;;;;;;20493;6862;338289;-89
2022/08/13 13:33:18;;;;;;;3.53;1.90;;;32.80;22.30;;;;;;20491;6862;312337;-89
2022/08/13 13:35:45;;;;;;;1.77;1.67;;;32.90;22.30;;;;;;20459;6862;341779;-90
2022/08/13 13:38:09;;;;;;;2.70;1.70;;;32.90;22.30;;;;;;20483;6862;308650;-88
2022/08/13 13:40:34;;;;;;;2.37;1.73;;;32.90;22.30;;;;;;20698;6862;117303;-88